createdAt,value
2023-01-25T00:00:03.075Z,0.96
2023-01-25T00:01:03.092Z,0.95
2023-01-25T00:02:03.187Z,0.96
2023-01-25T00:03:03.224Z,0.95
2023-01-25T00:04:03.143Z,0.96
2023-01-25T00:05:03.163Z,0.95
2023-01-25T00:06:03.188Z,0.95
2023-01-25T00:07:03.209Z,0.95
2023-01-25T00:08:03.235Z,0.98
2023-01-25T00:09:03.243Z,0.96
2023-01-25T00:10:03.259Z,0.98
2023-01-25T00:11:03.279Z,0.98
2023-01-25T00:12:03.290Z,0.95
2023-01-25T00:13:03.333Z,0.95
2023-01-25T00:14:03.330Z,0.95
2023-01-25T00:15:03.350Z,0.96
2023-01-25T00:16:03.424Z,0.99
2023-01-25T00:17:03.400Z,0.95
2023-01-25T00:18:03.430Z,0.95
2023-01-25T00:19:03.427Z,0.96
2023-01-25T00:20:03.429Z,0.98
2023-01-25T00:21:03.447Z,0.98
2023-01-25T00:22:03.470Z,0.96
2023-01-25T00:23:03.509Z,0.95
2023-01-25T00:24:03.575Z,0.96
2023-01-25T00:25:03.532Z,0.98
2023-01-25T00:26:03.560Z,0.99
2023-01-25T00:27:03.566Z,1.02
2023-01-25T00:28:03.573Z,0.99
2023-01-25T00:29:03.597Z,0.96
2023-01-25T00:30:03.607Z,0.96
2023-01-25T00:31:03.628Z,0.96
2023-01-25T00:32:03.796Z,0.96
2023-01-25T00:33:03.682Z,0.95
2023-01-25T00:34:03.672Z,0.96
2023-01-25T00:35:03.697Z,0.95
2023-01-25T00:36:03.712Z,0.98
2023-01-25T00:37:03.739Z,0.98
2023-01-25T00:38:03.772Z,0.96
2023-01-25T00:39:03.762Z,0.98
2023-01-25T00:40:03.789Z,0.98
2023-01-25T00:41:03.796Z,0.98
2023-01-25T00:42:03.804Z,0.99
2023-01-25T00:43:03.851Z,1.01
2023-01-25T00:44:03.837Z,0.99
2023-01-25T00:45:03.859Z,1.01
2023-01-25T00:46:03.946Z,1.01
2023-01-25T00:47:03.890Z,1.01
2023-01-25T00:48:03.901Z,0.99
2023-01-25T00:49:03.922Z,0.99
2023-01-25T00:50:03.929Z,1.01
2023-01-25T00:51:03.951Z,1.02
2023-01-25T00:52:03.961Z,1.04
2023-01-25T00:53:04.004Z,1.06
2023-01-25T00:54:04.049Z,1.05
2023-01-25T00:55:04.030Z,1.05
2023-01-25T00:56:04.047Z,1.04
2023-01-25T00:57:04.068Z,1.04
2023-01-25T00:58:04.108Z,1.06
2023-01-25T00:59:04.109Z,1.05
2023-01-25T01:00:04.143Z,1.06
2023-01-25T01:01:04.247Z,1.05
2023-01-25T01:02:04.166Z,1.06
2023-01-25T01:03:04.209Z,1.05
2023-01-25T01:04:05.799Z,1.05
2023-01-25T01:05:04.320Z,1.06
2023-01-25T01:06:04.238Z,1.05
2023-01-25T01:07:04.259Z,1.06
2023-01-25T01:08:04.295Z,1.06
2023-01-25T01:09:04.295Z,1.06
2023-01-25T01:10:04.298Z,1.10
2023-01-25T01:11:04.316Z,1.08
2023-01-25T01:12:04.328Z,1.05
2023-01-25T01:13:04.377Z,1.06
2023-01-25T01:14:04.366Z,1.06
2023-01-25T01:15:04.424Z,1.08
2023-01-25T01:16:04.384Z,1.06
2023-01-25T01:17:04.454Z,1.08
2023-01-25T01:18:04.458Z,1.08
2023-01-25T01:19:04.441Z,1.10
2023-01-25T01:20:04.443Z,1.08
2023-01-25T01:21:04.468Z,1.10
2023-01-25T01:22:04.494Z,1.12
2023-01-25T01:23:04.535Z,1.10
2023-01-25T01:24:04.532Z,1.12
2023-01-25T01:25:04.534Z,1.10
2023-01-25T01:26:04.539Z,1.10
2023-01-25T01:27:04.564Z,1.10
2023-01-25T01:28:04.602Z,1.10
2023-01-25T01:29:04.619Z,1.13
2023-01-25T01:30:04.621Z,1.12
2023-01-25T01:31:04.626Z,1.10
2023-01-25T01:32:04.812Z,1.13
2023-01-25T01:33:04.688Z,1.13
2023-01-25T01:34:04.675Z,1.10
2023-01-25T01:35:04.770Z,1.08
2023-01-25T01:36:04.698Z,1.12
2023-01-25T01:37:04.721Z,1.13
2023-01-25T01:38:04.777Z,1.08
2023-01-25T01:39:04.769Z,1.12
2023-01-25T01:40:04.792Z,1.12
2023-01-25T01:41:04.786Z,1.10
2023-01-25T01:42:04.813Z,1.12
2023-01-25T01:43:04.853Z,1.10
2023-01-25T01:44:04.830Z,1.10
2023-01-25T01:45:04.876Z,1.12
2023-01-25T01:46:04.964Z,1.14
2023-01-25T01:47:04.899Z,1.13
2023-01-25T01:48:04.945Z,1.12
2023-01-25T01:49:04.937Z,1.08
2023-01-25T01:50:04.938Z,1.10
2023-01-25T01:51:04.964Z,1.13
2023-01-25T01:52:04.968Z,1.13
2023-01-25T01:53:05.024Z,1.13
2023-01-25T01:54:05.010Z,1.12
2023-01-25T01:55:05.117Z,1.10
2023-01-25T01:56:05.049Z,1.10
2023-01-25T01:57:05.068Z,1.12
2023-01-25T01:58:05.098Z,1.10
2023-01-25T01:59:05.109Z,1.08
2023-01-25T02:00:05.107Z,1.12
2023-01-25T02:01:05.148Z,1.12
2023-01-25T02:02:05.183Z,1.12
2023-01-25T02:03:05.178Z,1.10
2023-01-25T02:04:05.170Z,1.12
2023-01-25T02:05:05.812Z,1.12
2023-01-25T02:06:05.208Z,1.12
2023-01-25T02:07:05.225Z,1.10
2023-01-25T02:08:05.271Z,1.12
2023-01-25T02:09:05.266Z,1.10
2023-01-25T02:10:05.267Z,1.12
2023-01-25T02:11:05.288Z,1.13
2023-01-25T02:12:05.307Z,1.12
2023-01-25T02:13:05.353Z,1.13
2023-01-25T02:14:05.353Z,1.12
2023-01-25T02:15:05.378Z,1.13
2023-01-25T02:16:05.482Z,1.13
2023-01-25T02:17:05.395Z,1.14
2023-01-25T02:18:05.437Z,1.12
2023-01-25T02:19:05.434Z,1.13
2023-01-25T02:20:05.444Z,1.12
2023-01-25T02:21:05.484Z,1.14
2023-01-25T02:22:05.485Z,1.14
2023-01-25T02:23:05.528Z,1.14
2023-01-25T02:24:05.573Z,1.12
2023-01-25T02:25:05.992Z,1.12
2023-01-25T02:26:05.588Z,1.12
2023-01-25T02:27:05.578Z,1.13
2023-01-25T02:28:05.613Z,1.13
2023-01-25T02:29:05.621Z,1.13
2023-01-25T02:30:11.637Z,1.13
2023-01-25T02:31:05.755Z,1.13
2023-01-25T02:32:05.754Z,1.13
2023-01-25T02:33:05.701Z,1.14
2023-01-25T02:34:05.699Z,1.13
2023-01-25T02:35:06.325Z,1.13
2023-01-25T02:36:05.733Z,1.13
2023-01-25T02:37:05.737Z,1.13
2023-01-25T02:38:05.782Z,1.10
2023-01-25T02:39:05.775Z,1.10
2023-01-25T02:40:05.836Z,1.10
2023-01-25T02:41:05.823Z,1.10
2023-01-25T02:42:05.826Z,1.10
2023-01-25T02:43:05.882Z,1.10
2023-01-25T02:44:05.860Z,1.12
2023-01-25T02:45:06.308Z,1.12
2023-01-25T02:46:05.908Z,1.10
2023-01-25T02:47:05.917Z,1.12
2023-01-25T02:48:05.936Z,1.12
2023-01-25T02:49:05.949Z,1.12
2023-01-25T02:50:05.969Z,1.12
2023-01-25T02:51:05.978Z,1.12
2023-01-25T02:52:06.000Z,1.10
2023-01-25T02:53:06.059Z,1.12
2023-01-25T02:54:06.024Z,1.12
2023-01-25T02:55:06.347Z,1.12
2023-01-25T02:56:06.053Z,1.12
2023-01-25T02:57:06.092Z,1.12
2023-01-25T02:58:06.110Z,1.10
2023-01-25T02:59:06.116Z,1.10
2023-01-25T03:00:06.133Z,1.10
2023-01-25T03:01:06.359Z,1.06
2023-01-25T03:02:06.164Z,1.08
2023-01-25T03:03:06.212Z,1.06
2023-01-25T03:04:06.200Z,1.08
2023-01-25T03:05:06.626Z,1.10
2023-01-25T03:06:06.238Z,1.10
2023-01-25T03:07:06.258Z,1.10
2023-01-25T03:08:06.308Z,1.10
2023-01-25T03:09:06.305Z,1.08
2023-01-25T03:10:06.322Z,1.10
2023-01-25T03:11:06.331Z,1.12
2023-01-25T03:12:06.348Z,1.10
2023-01-25T03:13:06.397Z,1.12
2023-01-25T03:14:06.390Z,1.06
2023-01-25T03:15:06.807Z,1.08
2023-01-25T03:16:06.446Z,1.08
2023-01-25T03:17:06.430Z,1.10
2023-01-25T03:18:06.477Z,1.08
2023-01-25T03:19:06.522Z,1.10
2023-01-25T03:20:06.486Z,1.06
2023-01-25T03:21:06.503Z,1.08
2023-01-25T03:22:06.523Z,1.10
2023-01-25T03:23:06.570Z,1.10
2023-01-25T03:24:06.580Z,1.06
2023-01-25T03:25:06.959Z,1.05
2023-01-25T03:26:06.600Z,1.06
2023-01-25T03:27:06.617Z,1.05
2023-01-25T03:28:06.657Z,1.04
2023-01-25T03:29:06.645Z,1.05
2023-01-25T03:30:06.670Z,1.08
2023-01-25T03:31:06.718Z,1.06
2023-01-25T03:32:06.904Z,1.08
2023-01-25T03:33:06.741Z,1.08
2023-01-25T03:34:06.739Z,1.06
2023-01-25T03:35:07.079Z,1.05
2023-01-25T03:36:06.858Z,1.06
2023-01-25T03:37:06.797Z,1.05
2023-01-25T03:38:06.846Z,1.06
2023-01-25T03:39:06.830Z,1.05
2023-01-25T03:40:06.858Z,1.04
2023-01-25T03:41:06.875Z,1.05
2023-01-25T03:42:06.888Z,1.05
2023-01-25T03:43:06.924Z,1.06
2023-01-25T03:44:06.924Z,1.08
2023-01-25T03:45:06.942Z,1.08
2023-01-25T03:46:06.969Z,1.05
2023-01-25T03:47:07.053Z,1.08
2023-01-25T03:48:07.032Z,1.06
2023-01-25T03:49:07.024Z,1.06
2023-01-25T03:50:07.036Z,1.08
2023-01-25T03:51:07.048Z,1.10
2023-01-25T03:52:07.066Z,1.10
2023-01-25T03:53:07.123Z,1.10
2023-01-25T03:54:07.106Z,1.08
2023-01-25T03:55:07.532Z,1.10
2023-01-25T03:56:07.155Z,1.06
2023-01-25T03:57:07.160Z,1.06
2023-01-25T03:58:07.199Z,1.05
2023-01-25T03:59:07.189Z,1.05
2023-01-25T04:00:07.210Z,1.04
2023-01-25T04:01:07.362Z,1.04
2023-01-25T04:02:07.322Z,1.01
2023-01-25T04:03:07.287Z,0.99
2023-01-25T04:04:07.286Z,0.99
2023-01-25T04:05:07.694Z,0.99
2023-01-25T04:06:07.315Z,0.98
2023-01-25T04:07:07.330Z,0.98
2023-01-25T04:08:07.392Z,1.01
2023-01-25T04:09:07.366Z,1.01
2023-01-25T04:10:07.441Z,0.99
2023-01-25T04:11:07.403Z,0.98
2023-01-25T04:12:07.417Z,0.98
2023-01-25T04:13:07.467Z,0.96
2023-01-25T04:14:07.448Z,0.96
2023-01-25T04:15:07.825Z,0.99
2023-01-25T04:16:07.616Z,0.99
2023-01-25T04:17:07.495Z,0.99
2023-01-25T04:18:07.550Z,0.95
2023-01-25T04:19:07.528Z,0.94
2023-01-25T04:20:07.549Z,0.95
2023-01-25T04:21:07.585Z,0.95
2023-01-25T04:22:07.582Z,0.95
2023-01-25T04:23:07.632Z,0.95
2023-01-25T04:24:07.667Z,0.96
2023-01-25T04:25:08.074Z,0.95
2023-01-25T04:26:07.675Z,0.92
2023-01-25T04:27:07.674Z,0.91
2023-01-25T04:28:07.744Z,0.92
2023-01-25T04:29:07.718Z,0.94
2023-01-25T04:30:07.744Z,0.95
2023-01-25T04:31:07.741Z,0.88
2023-01-25T04:32:07.905Z,0.87
2023-01-25T04:33:07.809Z,0.87
2023-01-25T04:34:07.801Z,0.88
2023-01-25T04:35:08.199Z,0.88
2023-01-25T04:36:07.837Z,0.88
2023-01-25T04:37:07.856Z,0.88
2023-01-25T04:38:07.902Z,0.92
2023-01-25T04:39:07.885Z,0.94
2023-01-25T04:40:07.911Z,0.92
2023-01-25T04:41:07.922Z,0.91
2023-01-25T04:42:07.943Z,0.92
2023-01-25T04:43:07.981Z,0.91
2023-01-25T04:44:07.992Z,0.88
2023-01-25T04:45:08.288Z,0.87
2023-01-25T04:46:08.107Z,0.84
2023-01-25T04:47:08.031Z,0.81
2023-01-25T04:48:08.076Z,0.80
2023-01-25T04:49:08.065Z,0.78
2023-01-25T04:50:08.105Z,0.76
2023-01-25T04:51:08.101Z,0.76
2023-01-25T04:52:08.124Z,0.77
2023-01-25T04:53:08.160Z,0.77
2023-01-25T04:54:08.163Z,0.77
2023-01-25T04:55:08.595Z,0.76
2023-01-25T04:56:08.218Z,0.77
2023-01-25T04:57:08.217Z,0.78
2023-01-25T04:58:08.267Z,0.76
2023-01-25T04:59:08.258Z,0.74
2023-01-25T05:00:08.274Z,0.76
2023-01-25T05:01:08.309Z,0.74
2023-01-25T05:02:08.403Z,0.74
2023-01-25T05:03:08.348Z,0.74
2023-01-25T05:04:08.347Z,0.74
2023-01-25T05:05:08.842Z,0.74
2023-01-25T05:06:08.379Z,0.73
2023-01-25T05:07:08.401Z,0.73
2023-01-25T05:08:08.440Z,0.74
2023-01-25T05:09:08.428Z,0.76
2023-01-25T05:10:08.450Z,0.76
2023-01-25T05:11:08.461Z,0.77
2023-01-25T05:12:08.492Z,0.77
2023-01-25T05:13:08.516Z,0.78
2023-01-25T05:14:08.521Z,0.77
2023-01-25T05:15:08.857Z,0.78
2023-01-25T05:16:09.169Z,0.77
2023-01-25T05:17:08.580Z,0.74
2023-01-25T05:18:08.612Z,0.69
2023-01-25T05:19:08.604Z,0.69
2023-01-25T05:20:08.628Z,0.69
2023-01-25T05:21:08.632Z,0.69
2023-01-25T05:22:08.652Z,0.69
2023-01-25T05:23:08.683Z,0.73
2023-01-25T05:24:08.775Z,0.74
2023-01-25T05:25:09.039Z,0.73
2023-01-25T05:26:08.720Z,0.73
2023-01-25T05:27:08.725Z,0.73
2023-01-25T05:28:08.763Z,0.74
2023-01-25T05:29:08.760Z,0.76
2023-01-25T05:30:08.777Z,0.73
2023-01-25T05:31:08.834Z,0.73
2023-01-25T05:32:08.883Z,0.73
2023-01-25T05:33:08.849Z,0.74
2023-01-25T05:34:08.855Z,0.73
2023-01-25T05:35:09.248Z,0.73
2023-01-25T05:36:08.892Z,0.70
2023-01-25T05:37:08.909Z,0.74
2023-01-25T05:38:08.967Z,0.74
2023-01-25T05:39:08.941Z,0.70
2023-01-25T05:40:08.971Z,0.74
2023-01-25T05:41:08.974Z,0.76
2023-01-25T05:42:09.012Z,0.69
2023-01-25T05:43:09.033Z,0.69
2023-01-25T05:44:09.042Z,0.70
2023-01-25T05:45:09.436Z,0.73
2023-01-25T05:46:09.096Z,0.73
2023-01-25T05:47:09.077Z,0.69
2023-01-25T05:48:09.128Z,0.68
2023-01-25T05:49:09.108Z,0.68
2023-01-25T05:50:09.648Z,0.66
2023-01-25T05:51:09.144Z,0.63
2023-01-25T05:52:09.158Z,0.65
2023-01-25T05:53:09.192Z,0.65
2023-01-25T05:54:09.193Z,0.65
2023-01-25T05:55:09.558Z,0.66
2023-01-25T05:56:09.240Z,0.68
2023-01-25T05:57:09.247Z,0.68
2023-01-25T05:58:09.293Z,0.68
2023-01-25T05:59:09.283Z,0.69
2023-01-25T06:00:09.307Z,0.68
2023-01-25T06:01:09.329Z,0.65
2023-01-25T06:02:09.404Z,0.62
2023-01-25T06:03:09.514Z,0.62
2023-01-25T06:04:09.381Z,0.63
2023-01-25T06:05:09.774Z,0.62
2023-01-25T06:06:09.418Z,0.63
2023-01-25T06:07:09.422Z,0.65
2023-01-25T06:08:09.478Z,0.68
2023-01-25T06:09:09.458Z,0.68
2023-01-25T06:10:09.478Z,0.63
2023-01-25T06:11:09.496Z,0.60
2023-01-25T06:12:09.512Z,0.63
2023-01-25T06:13:09.559Z,0.62
2023-01-25T06:14:09.550Z,0.62
2023-01-25T06:15:09.995Z,0.62
2023-01-25T06:16:09.627Z,0.63
2023-01-25T06:17:09.602Z,0.63
2023-01-25T06:18:09.653Z,0.63
2023-01-25T06:19:09.661Z,0.66
2023-01-25T06:20:09.658Z,0.65
2023-01-25T06:21:09.680Z,0.65
2023-01-25T06:22:09.696Z,0.65
2023-01-25T06:23:09.745Z,0.65
2023-01-25T06:24:09.804Z,0.65
2023-01-25T06:25:10.069Z,0.66
2023-01-25T06:26:09.763Z,0.62
2023-01-25T06:27:09.780Z,0.62
2023-01-25T06:28:09.836Z,0.62
2023-01-25T06:29:09.837Z,0.60
2023-01-25T06:30:09.836Z,0.58
2023-01-25T06:31:09.954Z,0.56
2023-01-25T06:32:09.956Z,0.56
2023-01-25T06:33:09.926Z,0.56
2023-01-25T06:34:09.915Z,0.55
2023-01-25T06:35:10.364Z,0.56
2023-01-25T06:36:09.934Z,0.56
2023-01-25T06:37:09.949Z,0.58
2023-01-25T06:38:09.998Z,0.58
2023-01-25T06:39:09.981Z,0.58
2023-01-25T06:40:10.002Z,0.62
2023-01-25T06:41:11.202Z,0.56
2023-01-25T06:42:10.031Z,0.56
2023-01-25T06:43:10.066Z,0.56
2023-01-25T06:44:10.068Z,0.59
2023-01-25T06:45:10.497Z,0.60
2023-01-25T06:46:10.181Z,0.58
2023-01-25T06:47:10.120Z,0.58
2023-01-25T06:48:12.244Z,0.56
2023-01-25T06:49:10.150Z,0.52
2023-01-25T06:50:10.183Z,0.56
2023-01-25T06:51:10.188Z,0.60
2023-01-25T06:52:10.207Z,0.63
2023-01-25T06:53:10.244Z,0.66
2023-01-25T06:54:10.249Z,0.66
2023-01-25T06:55:10.743Z,0.65
2023-01-25T06:56:11.793Z,0.65
2023-01-25T06:57:10.346Z,0.66
2023-01-25T06:58:10.356Z,0.69
2023-01-25T06:59:10.339Z,0.73
2023-01-25T07:00:10.389Z,0.68
2023-01-25T07:01:10.387Z,0.59
2023-01-25T07:02:10.407Z,0.56
2023-01-25T07:03:10.503Z,0.52
2023-01-25T07:04:10.427Z,0.52
2023-01-25T07:05:10.943Z,0.55
2023-01-25T07:06:10.471Z,0.55
2023-01-25T07:07:10.483Z,0.52
2023-01-25T07:08:10.526Z,0.55
2023-01-25T07:09:10.512Z,0.52
2023-01-25T07:10:10.527Z,0.49
2023-01-25T07:11:10.539Z,0.46
2023-01-25T07:12:10.564Z,0.46
2023-01-25T07:13:10.613Z,0.44
2023-01-25T07:14:10.599Z,0.44
2023-01-25T07:15:11.073Z,0.47
2023-01-25T07:16:10.630Z,0.46
2023-01-25T07:17:10.647Z,0.46
2023-01-25T07:18:16.230Z,0.44
2023-01-25T07:19:10.727Z,0.41
2023-01-25T07:20:10.704Z,0.43
2023-01-25T07:21:10.712Z,0.41
2023-01-25T07:22:10.738Z,0.41
2023-01-25T07:23:10.750Z,0.41
2023-01-25T07:24:10.865Z,0.41
2023-01-25T07:25:11.016Z,0.44
2023-01-25T07:26:10.799Z,0.47
2023-01-25T07:27:10.819Z,0.49
2023-01-25T07:28:10.834Z,0.47
2023-01-25T07:29:11.385Z,0.50
2023-01-25T07:30:10.872Z,0.50
2023-01-25T07:31:10.967Z,0.49
2023-01-25T07:32:10.906Z,0.52
2023-01-25T07:33:10.921Z,0.50
2023-01-25T07:34:10.959Z,0.50
2023-01-25T07:35:11.343Z,0.49
2023-01-25T07:36:10.982Z,0.49
2023-01-25T07:37:10.995Z,0.47
2023-01-25T07:38:12.444Z,0.47
2023-01-25T07:39:11.053Z,0.49
2023-01-25T07:40:11.057Z,0.50
2023-01-25T07:41:11.112Z,0.49
2023-01-25T07:42:11.089Z,0.47
2023-01-25T07:43:11.111Z,0.44
2023-01-25T07:44:11.133Z,0.47
2023-01-25T07:45:11.556Z,0.46
2023-01-25T07:46:11.267Z,0.44
2023-01-25T07:47:11.188Z,0.44
2023-01-25T07:48:11.205Z,0.43
2023-01-25T07:49:11.230Z,0.44
2023-01-25T07:50:11.238Z,0.47
2023-01-25T07:51:11.266Z,0.47
2023-01-25T07:52:11.272Z,0.49
2023-01-25T07:53:11.290Z,0.55
2023-01-25T07:54:11.311Z,0.52
2023-01-25T07:55:11.961Z,0.55
2023-01-25T07:56:11.341Z,0.52
2023-01-25T07:57:11.366Z,0.52
2023-01-25T07:58:11.379Z,0.55
2023-01-25T07:59:11.406Z,0.56
2023-01-25T08:00:11.408Z,0.55
2023-01-25T08:01:11.430Z,0.56
2023-01-25T08:02:11.452Z,0.58
2023-01-25T08:03:11.472Z,0.55
2023-01-25T08:04:11.502Z,0.52
2023-01-25T08:05:11.796Z,0.50
2023-01-25T08:06:11.525Z,0.49
2023-01-25T08:07:11.547Z,0.49
2023-01-25T08:08:11.567Z,0.49
2023-01-25T08:09:11.593Z,0.47
2023-01-25T08:10:11.602Z,0.49
2023-01-25T08:11:11.631Z,0.55
2023-01-25T08:12:11.633Z,0.55
2023-01-25T08:13:11.648Z,0.46
2023-01-25T08:14:11.673Z,0.44
2023-01-25T08:15:12.060Z,0.46
2023-01-25T08:16:11.708Z,0.49
2023-01-25T08:17:11.727Z,0.47
2023-01-25T08:18:11.742Z,0.50
2023-01-25T08:19:11.813Z,0.52
2023-01-25T08:20:11.778Z,0.56
2023-01-25T08:21:11.805Z,0.50
2023-01-25T08:22:11.819Z,0.49
2023-01-25T08:23:11.842Z,0.52
2023-01-25T08:24:11.935Z,0.47
2023-01-25T08:25:11.958Z,0.47
2023-01-25T08:26:11.884Z,0.52
2023-01-25T08:27:11.914Z,0.55
2023-01-25T08:28:11.941Z,0.52
2023-01-25T08:29:11.952Z,0.50
2023-01-25T08:30:17.964Z,0.46
2023-01-25T08:31:11.984Z,0.44
2023-01-25T08:32:12.006Z,0.46
2023-01-25T08:33:12.026Z,0.44
2023-01-25T08:34:12.043Z,0.47
2023-01-25T08:35:12.383Z,0.50
2023-01-25T08:36:12.078Z,0.52
2023-01-25T08:37:12.102Z,0.55
2023-01-25T08:38:12.117Z,0.50
2023-01-25T08:39:12.143Z,0.49
2023-01-25T08:40:12.454Z,0.43
2023-01-25T08:41:12.175Z,0.41
2023-01-25T08:42:12.187Z,0.43
2023-01-25T08:43:12.211Z,0.39
2023-01-25T08:44:12.227Z,0.39
2023-01-25T08:45:12.245Z,0.39
2023-01-25T08:46:12.276Z,0.44
2023-01-25T08:47:12.285Z,0.44
2023-01-25T08:48:12.300Z,0.43
2023-01-25T08:49:12.325Z,0.41
2023-01-25T08:50:12.608Z,0.43
2023-01-25T08:51:12.397Z,0.43
2023-01-25T08:52:12.366Z,0.40
2023-01-25T08:53:12.384Z,0.41
2023-01-25T08:54:12.409Z,0.43
2023-01-25T08:55:12.424Z,0.37
2023-01-25T08:56:12.440Z,0.40
2023-01-25T08:57:12.461Z,0.47
2023-01-25T08:58:12.478Z,0.43
2023-01-25T08:59:12.507Z,0.41
2023-01-25T09:00:12.759Z,0.46
2023-01-25T09:01:12.539Z,0.46
2023-01-25T09:02:12.564Z,0.50
2023-01-25T09:03:12.691Z,0.44
2023-01-25T09:04:12.582Z,0.46
2023-01-25T09:05:12.598Z,0.49
2023-01-25T09:06:12.634Z,0.43
2023-01-25T09:07:12.633Z,0.44
2023-01-25T09:08:12.669Z,0.43
2023-01-25T09:09:12.919Z,0.40
2023-01-25T09:10:12.687Z,0.41
2023-01-25T09:11:12.720Z,0.46
2023-01-25T09:12:12.728Z,0.47
2023-01-25T09:13:12.765Z,0.47
2023-01-25T09:14:12.776Z,0.41
2023-01-25T09:15:12.789Z,0.39
2023-01-25T09:16:12.808Z,0.39
2023-01-25T09:17:12.824Z,0.41
2023-01-25T09:18:12.839Z,0.39
2023-01-25T09:19:12.869Z,0.39
2023-01-25T09:20:12.875Z,0.41
2023-01-25T09:21:12.894Z,0.37
2023-01-25T09:22:12.913Z,0.37
2023-01-25T09:23:12.948Z,0.40
2023-01-25T09:24:12.996Z,0.44
2023-01-25T09:25:12.970Z,0.44
2023-01-25T09:26:12.983Z,0.40
2023-01-25T09:27:13.009Z,0.43
2023-01-25T09:28:13.029Z,0.46
2023-01-25T09:29:13.051Z,0.47
2023-01-25T09:30:18.157Z,0.46
2023-01-25T09:31:21.519Z,0.40
2023-01-25T09:32:13.196Z,0.39
2023-01-25T09:33:13.110Z,0.39
2023-01-25T09:34:13.139Z,0.41
2023-01-25T09:35:13.146Z,0.40
2023-01-25T09:36:14.844Z,0.40
2023-01-25T09:37:13.186Z,0.44
2023-01-25T09:38:13.201Z,0.43
2023-01-25T09:39:13.263Z,0.40
2023-01-25T09:40:13.240Z,0.39
2023-01-25T09:41:13.263Z,0.44
2023-01-25T09:42:15.487Z,0.46
2023-01-25T09:43:13.303Z,0.49
2023-01-25T09:44:15.238Z,0.52
2023-01-25T09:45:13.335Z,0.50
2023-01-25T09:46:13.419Z,0.49
2023-01-25T09:47:13.371Z,0.47
2023-01-25T09:48:13.389Z,0.44
2023-01-25T09:49:13.430Z,0.47
2023-01-25T09:50:13.666Z,0.50
2023-01-25T09:51:13.437Z,0.56
2023-01-25T09:52:13.452Z,0.55
2023-01-25T09:53:13.503Z,0.52
2023-01-25T09:54:13.512Z,0.50
2023-01-25T09:55:13.513Z,0.55
2023-01-25T09:56:13.523Z,0.60
2023-01-25T09:57:13.548Z,0.63
2023-01-25T09:58:13.560Z,0.63
2023-01-25T09:59:13.600Z,0.59
2023-01-25T10:00:14.101Z,0.58
2023-01-25T10:01:14.517Z,0.60
2023-01-25T10:02:13.728Z,0.63
2023-01-25T10:03:13.721Z,0.66
2023-01-25T10:04:13.692Z,0.62
2023-01-25T10:05:13.700Z,0.65
2023-01-25T10:06:13.716Z,0.70
2023-01-25T10:07:13.734Z,0.70
2023-01-25T10:08:13.751Z,0.66
2023-01-25T10:09:13.795Z,0.66
2023-01-25T10:10:13.790Z,0.66
2023-01-25T10:11:13.808Z,0.69
2023-01-25T10:12:13.823Z,0.74
2023-01-25T10:13:13.845Z,0.76
2023-01-25T10:14:13.888Z,0.76
2023-01-25T10:15:13.885Z,0.74
2023-01-25T10:16:24.997Z,0.73
2023-01-25T10:17:13.917Z,0.77
2023-01-25T10:18:14.157Z,0.77
2023-01-25T10:19:13.968Z,0.68
2023-01-25T10:20:13.971Z,0.66
2023-01-25T10:21:13.987Z,0.68
2023-01-25T10:22:14.100Z,0.70
2023-01-25T10:23:14.023Z,0.74
2023-01-25T10:24:14.128Z,0.73
2023-01-25T10:25:14.061Z,0.65
2023-01-25T10:26:14.078Z,0.63
2023-01-25T10:27:14.099Z,0.59
2023-01-25T10:28:14.113Z,0.56
2023-01-25T10:29:14.155Z,0.56
2023-01-25T10:30:14.146Z,0.58
2023-01-25T10:31:14.394Z,0.56
2023-01-25T10:32:14.177Z,0.55
2023-01-25T10:33:14.198Z,0.56
2023-01-25T10:34:14.241Z,0.52
2023-01-25T10:35:19.980Z,0.52
2023-01-25T10:36:14.260Z,0.50
2023-01-25T10:37:14.291Z,0.50
2023-01-25T10:38:14.291Z,0.56
2023-01-25T10:39:14.332Z,0.56
2023-01-25T10:40:14.335Z,0.56
2023-01-25T10:41:14.355Z,0.55
2023-01-25T10:42:14.355Z,0.55
2023-01-25T10:43:14.379Z,0.46
2023-01-25T10:44:14.440Z,0.50
2023-01-25T10:45:14.411Z,0.52
2023-01-25T10:46:14.458Z,0.52
2023-01-25T10:47:14.453Z,0.52
2023-01-25T10:48:14.465Z,0.56
2023-01-25T10:49:14.508Z,0.60
2023-01-25T10:50:14.628Z,0.65
2023-01-25T10:51:14.523Z,0.68
2023-01-25T10:52:14.560Z,0.69
2023-01-25T10:53:14.562Z,0.69
2023-01-25T10:54:14.601Z,0.65
2023-01-25T10:55:14.614Z,0.62
2023-01-25T10:56:14.614Z,0.62
2023-01-25T10:57:15.610Z,0.60
2023-01-25T10:58:14.652Z,0.63
2023-01-25T10:59:14.712Z,0.65
2023-01-25T11:00:14.768Z,0.70
2023-01-25T11:01:14.716Z,0.74
2023-01-25T11:02:14.730Z,0.74
2023-01-25T11:03:14.751Z,0.77
2023-01-25T11:04:14.786Z,0.81
2023-01-25T11:05:14.792Z,0.84
2023-01-25T11:06:14.806Z,0.77
2023-01-25T11:07:14.835Z,0.77
2023-01-25T11:08:14.847Z,0.77
2023-01-25T11:09:14.892Z,0.77
2023-01-25T11:10:14.935Z,0.78
2023-01-25T11:11:14.899Z,0.77
2023-01-25T11:12:14.916Z,0.80
2023-01-25T11:13:14.944Z,0.78
2023-01-25T11:14:14.975Z,0.74
2023-01-25T11:15:14.978Z,0.77
2023-01-25T11:16:15.106Z,0.83
2023-01-25T11:17:15.017Z,0.86
2023-01-25T11:18:15.033Z,0.87
2023-01-25T11:19:15.076Z,0.86
2023-01-25T11:20:15.149Z,0.87
2023-01-25T11:21:15.112Z,0.83
2023-01-25T11:22:15.105Z,0.78
2023-01-25T11:23:15.128Z,0.76
2023-01-25T11:24:15.250Z,0.76
2023-01-25T11:25:15.163Z,0.77
2023-01-25T11:26:15.181Z,0.77
2023-01-25T11:27:15.201Z,0.70
2023-01-25T11:28:15.212Z,0.68
2023-01-25T11:29:15.280Z,0.69
2023-01-25T11:30:15.370Z,0.68
2023-01-25T11:31:15.399Z,0.62
2023-01-25T11:32:15.287Z,0.52
2023-01-25T11:33:15.319Z,0.46
2023-01-25T11:34:15.344Z,0.41
2023-01-25T11:35:15.343Z,0.43
2023-01-25T11:36:15.362Z,0.43
2023-01-25T11:37:15.380Z,0.41
2023-01-25T11:38:15.393Z,0.41
2023-01-25T11:39:15.443Z,0.41
2023-01-25T11:40:15.423Z,0.44
2023-01-25T11:41:15.448Z,0.46
2023-01-25T11:42:15.470Z,0.46
2023-01-25T11:43:15.485Z,0.46
2023-01-25T11:44:15.523Z,0.50
2023-01-25T11:45:15.525Z,0.52
2023-01-25T11:46:15.576Z,0.52
2023-01-25T11:47:15.563Z,0.52
2023-01-25T11:48:15.600Z,0.52
2023-01-25T11:49:15.627Z,0.50
2023-01-25T11:50:15.629Z,0.44
2023-01-25T11:51:15.636Z,0.47
2023-01-25T11:52:15.656Z,0.49
2023-01-25T11:53:15.672Z,0.50
2023-01-25T11:54:15.714Z,0.49
2023-01-25T11:55:15.705Z,0.41
2023-01-25T11:56:15.732Z,0.40
2023-01-25T11:57:15.734Z,0.43
2023-01-25T11:58:15.761Z,0.46
2023-01-25T11:59:15.808Z,0.47
2023-01-25T12:00:15.808Z,0.44
2023-01-25T12:01:15.815Z,0.46
2023-01-25T12:02:15.857Z,0.47
2023-01-25T12:03:16.933Z,0.49
2023-01-25T12:04:16.124Z,0.50
2023-01-25T12:05:21.632Z,0.55
2023-01-25T12:06:15.916Z,0.58
2023-01-25T12:07:15.922Z,0.56
2023-01-25T12:08:15.945Z,0.58
2023-01-25T12:09:15.977Z,0.63
2023-01-25T12:10:15.975Z,0.66
2023-01-25T12:11:15.997Z,0.65
2023-01-25T12:12:16.037Z,0.62
2023-01-25T12:13:16.039Z,0.60
2023-01-25T12:14:16.070Z,0.56
2023-01-25T12:15:16.059Z,0.52
2023-01-25T12:16:16.103Z,0.55
2023-01-25T12:17:16.093Z,0.50
2023-01-25T12:18:16.117Z,0.52
2023-01-25T12:19:16.156Z,0.50
2023-01-25T12:20:16.155Z,0.46
2023-01-25T12:21:26.296Z,0.49
2023-01-25T12:22:16.203Z,0.46
2023-01-25T12:23:16.208Z,0.47
2023-01-25T12:24:16.357Z,0.46
2023-01-25T12:25:16.236Z,0.50
2023-01-25T12:26:16.259Z,0.50
2023-01-25T12:27:16.272Z,0.55
2023-01-25T12:28:16.295Z,0.55
2023-01-25T12:29:16.334Z,0.44
2023-01-25T12:30:16.362Z,0.44
2023-01-25T12:31:16.534Z,0.41
2023-01-25T12:32:16.372Z,0.49
2023-01-25T12:33:16.389Z,0.55
2023-01-25T12:34:16.423Z,0.59
2023-01-25T12:35:16.429Z,0.60
2023-01-25T12:36:16.452Z,0.55
2023-01-25T12:37:16.466Z,0.50
2023-01-25T12:38:16.488Z,0.50
2023-01-25T12:39:18.139Z,0.43
2023-01-25T12:40:16.537Z,0.44
2023-01-25T12:41:16.541Z,0.44
2023-01-25T12:42:16.564Z,0.44
2023-01-25T12:43:16.579Z,0.46
2023-01-25T12:44:16.611Z,0.44
2023-01-25T12:45:16.617Z,0.46
2023-01-25T12:46:16.632Z,0.50
2023-01-25T12:47:16.652Z,0.55
2023-01-25T12:48:16.668Z,0.56
2023-01-25T12:49:16.704Z,0.50
2023-01-25T12:50:16.729Z,0.47
2023-01-25T12:51:16.721Z,0.47
2023-01-25T12:52:16.744Z,0.47
2023-01-25T12:53:16.760Z,0.43
2023-01-25T12:54:16.806Z,0.44
2023-01-25T12:55:16.791Z,0.46
2023-01-25T12:56:16.813Z,0.50
2023-01-25T12:57:16.830Z,0.52
2023-01-25T12:58:18.220Z,0.55
2023-01-25T12:59:16.889Z,0.55
2023-01-25T13:00:16.892Z,0.55
2023-01-25T13:01:16.975Z,0.58
2023-01-25T13:02:16.966Z,0.55
2023-01-25T13:03:16.942Z,0.50
2023-01-25T13:04:16.988Z,0.59
2023-01-25T13:05:16.976Z,0.52
2023-01-25T13:06:16.998Z,0.55
2023-01-25T13:07:17.013Z,0.60
2023-01-25T13:08:30.048Z,0.56
2023-01-25T13:09:17.071Z,0.52
2023-01-25T13:10:17.080Z,0.52
2023-01-25T13:11:17.087Z,0.56
2023-01-25T13:12:17.110Z,0.58
2023-01-25T13:13:17.142Z,0.52
2023-01-25T13:14:17.176Z,0.50
2023-01-25T13:15:17.162Z,0.49
2023-01-25T13:16:17.218Z,0.44
2023-01-25T13:17:17.187Z,0.44
2023-01-25T13:18:17.207Z,0.47